createdAt,value
2019-06-15T00:00:29.088Z,1.40
2019-06-15T00:02:57.861Z,1.40
2019-06-15T00:05:26.689Z,1.40
2019-06-15T00:07:55.467Z,1.20
2019-06-15T00:10:24.224Z,1.30
2019-06-15T00:12:53.067Z,1.50
2019-06-15T00:15:21.965Z,1.40
2019-06-15T00:17:50.711Z,1.30
2019-06-15T00:20:19.576Z,1.47
2019-06-15T00:22:48.498Z,1.30
2019-06-15T00:25:17.299Z,1.20
2019-06-15T00:27:46.048Z,1.30
2019-06-15T00:30:14.787Z,1.17
2019-06-15T00:32:43.616Z,1.10
2019-06-15T00:35:12.397Z,1.27
2019-06-15T00:37:41.144Z,1.30
2019-06-15T00:40:09.905Z,1.40
2019-06-15T00:42:38.755Z,1.20
2019-06-15T00:45:07.514Z,1.30
2019-06-15T00:47:37.650Z,1.10
2019-06-15T00:50:06.451Z,1.30
2019-06-15T00:52:39.019Z,1.10
2019-06-15T00:55:07.775Z,1.30
2019-06-15T00:57:36.715Z,1.30
2019-06-15T01:00:07.077Z,1.10
2019-06-15T01:02:35.925Z,1.17
2019-06-15T01:05:04.803Z,1.40
2019-06-15T01:07:33.585Z,1.47
2019-06-15T01:10:02.395Z,1.30
2019-06-15T01:12:31.158Z,1.37
2019-06-15T01:14:59.957Z,1.20
2019-06-15T01:17:28.799Z,1.30
2019-06-15T01:19:57.543Z,1.10
2019-06-15T01:22:26.541Z,1.30
2019-06-15T01:25:05.111Z,1.23
2019-06-15T01:27:25.803Z,1.30
2019-06-15T01:29:54.571Z,1.30
2019-06-15T01:32:23.324Z,1.13
2019-06-15T01:34:52.087Z,1.30
2019-06-15T01:37:20.831Z,1.40
2019-06-15T01:39:49.598Z,1.23
2019-06-15T01:42:19.765Z,1.10
2019-06-15T01:44:48.521Z,1.20
2019-06-15T01:47:17.339Z,1.30
2019-06-15T01:49:46.120Z,1.47
2019-06-15T01:52:14.896Z,1.20
2019-06-15T01:54:43.699Z,1.30
2019-06-15T01:57:12.539Z,1.20
2019-06-15T01:59:41.285Z,1.10
2019-06-15T02:02:10.072Z,1.23
2019-06-15T02:04:38.855Z,1.07
2019-06-15T02:07:07.643Z,1.20
2019-06-15T02:09:36.382Z,1.20
2019-06-15T02:12:05.347Z,1.10
2019-06-15T02:14:34.099Z,1.30
2019-06-15T02:17:02.891Z,1.50
2019-06-15T02:19:31.654Z,1.07
2019-06-15T02:22:00.458Z,1.20
2019-06-15T02:24:29.208Z,1.10
2019-06-15T02:26:58.046Z,1.13
2019-06-15T02:29:26.822Z,1.20
2019-06-15T02:31:55.575Z,1.50
2019-06-15T02:34:24.343Z,1.17
2019-06-15T02:36:53.107Z,1.03
2019-06-15T02:39:21.878Z,1.30
2019-06-15T02:41:50.650Z,1.20
2019-06-15T02:44:19.425Z,1.17
2019-06-15T02:46:48.173Z,1.40
2019-06-15T02:49:17.003Z,1.10
2019-06-15T02:51:45.769Z,1.30
2019-06-15T02:54:14.530Z,1.10
2019-06-15T02:56:43.318Z,1.30
2019-06-15T02:59:12.063Z,1.40
2019-06-15T03:01:40.802Z,1.30
2019-06-15T03:04:09.574Z,1.40
2019-06-15T03:06:38.339Z,1.20
2019-06-15T03:09:07.282Z,1.10
2019-06-15T03:11:36.122Z,1.47
2019-06-15T03:14:05.566Z,1.20
2019-06-15T03:16:34.302Z,1.40
2019-06-15T03:19:03.072Z,1.30
2019-06-15T03:21:31.916Z,1.33
2019-06-15T03:24:00.685Z,1.10
2019-06-15T03:26:29.509Z,1.40
2019-06-15T03:28:58.305Z,1.20
2019-06-15T03:31:27.312Z,1.30
2019-06-15T03:33:56.148Z,1.27
2019-06-15T03:36:24.945Z,1.37
2019-06-15T03:38:53.764Z,1.30
2019-06-15T03:41:22.638Z,1.30
2019-06-15T03:43:51.388Z,1.30
2019-06-15T03:46:20.340Z,1.40
2019-06-15T03:48:49.100Z,1.40
2019-06-15T03:51:17.920Z,1.30
2019-06-15T03:53:46.747Z,1.33
2019-06-15T03:56:21.458Z,1.57
2019-06-15T03:58:46.162Z,1.60
2019-06-15T04:01:24.668Z,1.30
2019-06-15T04:03:53.519Z,1.47
2019-06-15T04:06:22.274Z,1.40
2019-06-15T04:08:51.025Z,1.53
2019-06-15T04:11:19.845Z,1.60
2019-06-15T04:13:48.639Z,1.43
2019-06-15T04:16:17.486Z,1.43
2019-06-15T04:18:46.592Z,1.27
2019-06-15T04:21:15.422Z,1.50
2019-06-15T04:23:44.269Z,1.37
2019-06-15T04:26:13.236Z,1.47
2019-06-15T04:28:42.046Z,1.40
2019-06-15T04:31:11.342Z,1.60
2019-06-15T04:33:40.140Z,1.60
2019-06-15T04:36:08.944Z,1.60
2019-06-15T04:38:37.723Z,1.43
2019-06-15T04:41:06.541Z,1.43
2019-06-15T04:43:35.384Z,1.37
2019-06-15T04:46:04.176Z,1.70
2019-06-15T04:48:32.996Z,1.30
2019-06-15T04:51:01.885Z,1.40
2019-06-15T04:53:30.706Z,1.50
2019-06-15T04:55:59.533Z,1.40
2019-06-15T04:58:28.394Z,1.50
2019-06-15T05:00:57.221Z,1.60
2019-06-15T05:03:26.131Z,1.50
2019-06-15T05:05:54.869Z,1.67
2019-06-15T05:08:23.618Z,1.60
2019-06-15T05:10:52.515Z,1.63
2019-06-15T05:13:21.264Z,1.50
2019-06-15T05:15:54.178Z,1.53
2019-06-15T05:18:23.024Z,1.63
2019-06-15T05:20:51.853Z,1.80
2019-06-15T05:23:20.627Z,1.40
2019-06-15T05:25:49.407Z,1.50
2019-06-15T05:28:18.322Z,1.47
2019-06-15T05:30:47.090Z,1.63
2019-06-15T05:33:15.892Z,1.50
2019-06-15T05:35:44.658Z,1.50
2019-06-15T05:38:13.419Z,1.70
2019-06-15T05:40:42.263Z,1.43
2019-06-15T05:43:11.279Z,1.57
2019-06-15T05:45:40.043Z,1.60
2019-06-15T05:48:08.811Z,1.50
2019-06-15T05:50:37.678Z,1.60
2019-06-15T05:53:06.440Z,1.30
2019-06-15T05:55:35.269Z,1.60
2019-06-15T05:58:04.043Z,1.57
2019-06-15T06:00:32.832Z,1.70
2019-06-15T06:03:01.759Z,1.50
2019-06-15T06:05:30.678Z,1.40
2019-06-15T06:07:59.462Z,1.40
2019-06-15T06:10:28.340Z,1.50
2019-06-15T06:12:57.114Z,1.67
2019-06-15T06:15:26.946Z,1.63
2019-06-15T06:17:55.937Z,1.40
2019-06-15T06:20:24.840Z,1.40
2019-06-15T06:22:53.771Z,1.50
2019-06-15T06:25:22.579Z,1.37
2019-06-15T06:27:51.401Z,1.30
2019-06-15T06:30:20.209Z,1.37
2019-06-15T06:32:48.977Z,1.40
2019-06-15T06:35:17.815Z,1.40
2019-06-15T06:37:46.703Z,1.50
2019-06-15T06:40:15.556Z,1.20
2019-06-15T06:42:44.376Z,1.30
2019-06-15T06:45:19.919Z,1.30
2019-06-15T06:47:48.761Z,1.40
2019-06-15T06:50:17.593Z,1.40
2019-06-15T06:52:46.413Z,1.40
2019-06-15T06:55:16.815Z,1.20
2019-06-15T06:57:53.368Z,1.30
2019-06-15T07:00:16.353Z,1.40
2019-06-15T07:02:45.253Z,1.47
2019-06-15T07:05:14.583Z,1.30
2019-06-15T07:07:43.423Z,1.30
2019-06-15T07:10:12.829Z,1.20
2019-06-15T07:12:42.524Z,1.30
2019-06-15T07:15:11.365Z,1.30
2019-06-15T07:17:40.313Z,1.20
2019-06-15T07:20:09.212Z,1.40
2019-06-15T07:22:37.974Z,1.33
2019-06-15T07:25:06.918Z,1.40
2019-06-15T07:27:35.689Z,1.10
2019-06-15T07:30:05.214Z,1.20
2019-06-15T07:32:34.077Z,1.20
2019-06-15T07:35:02.812Z,1.30
2019-06-15T07:37:31.561Z,1.30
2019-06-15T07:40:00.328Z,1.50
2019-06-15T07:42:29.066Z,1.20
2019-06-15T07:44:57.931Z,1.23
2019-06-15T07:47:26.693Z,1.50
2019-06-15T07:49:55.603Z,1.40
2019-06-15T07:52:24.338Z,1.30
2019-06-15T07:54:53.129Z,1.13
2019-06-15T07:57:21.984Z,1.20
2019-06-15T07:59:50.727Z,1.23
2019-06-15T08:02:19.506Z,1.43
2019-06-15T08:04:48.396Z,1.27
2019-06-15T08:07:17.174Z,1.40
2019-06-15T08:09:45.936Z,1.60
2019-06-15T08:12:14.852Z,1.50
2019-06-15T08:14:43.670Z,1.40
2019-06-15T08:17:12.428Z,1.47
2019-06-15T08:19:41.293Z,1.50
2019-06-15T08:22:10.129Z,1.80
2019-06-15T08:24:38.940Z,1.70
2019-06-15T08:27:07.837Z,2.00
2019-06-15T08:29:36.698Z,2.00
2019-06-15T08:32:05.545Z,1.80
2019-06-15T08:34:34.348Z,2.00
2019-06-15T08:37:03.171Z,1.90
2019-06-15T08:39:31.947Z,1.70
2019-06-15T08:42:00.793Z,1.70
2019-06-15T08:44:29.611Z,1.80
2019-06-15T08:46:59.451Z,1.70
2019-06-15T08:49:28.430Z,1.87
2019-06-15T08:51:57.226Z,1.70
2019-06-15T08:54:26.109Z,1.70
2019-06-15T08:56:54.879Z,1.90
2019-06-15T08:59:23.723Z,2.00
2019-06-15T09:01:52.470Z,1.90
2019-06-15T09:04:21.213Z,2.00
2019-06-15T09:06:50.025Z,1.77
2019-06-15T09:09:18.835Z,1.90
2019-06-15T09:11:47.616Z,1.90
2019-06-15T09:14:16.375Z,2.03
2019-06-15T09:16:45.122Z,1.90
2019-06-15T09:19:13.885Z,2.07
2019-06-15T09:21:42.646Z,2.07
2019-06-15T09:24:11.510Z,1.90
2019-06-15T09:26:40.244Z,2.13
2019-06-15T09:29:11.558Z,1.83
2019-06-15T09:31:39.473Z,2.10
2019-06-15T09:34:18.404Z,2.10
2019-06-15T09:36:38.786Z,2.20
2019-06-15T09:39:07.786Z,1.80
2019-06-15T09:41:36.610Z,1.70
2019-06-15T09:44:05.438Z,2.10
2019-06-15T09:46:34.300Z,2.10
2019-06-15T09:49:03.116Z,2.00
2019-06-15T09:51:31.981Z,2.00
2019-06-15T09:54:00.809Z,1.90
2019-06-15T09:56:29.549Z,1.77
2019-06-15T09:58:58.320Z,1.90
2019-06-15T10:01:27.152Z,1.80
2019-06-15T10:03:55.918Z,2.13
2019-06-15T10:06:24.705Z,1.80
2019-06-15T10:08:53.570Z,2.00
2019-06-15T10:11:22.417Z,2.23
2019-06-15T10:13:51.220Z,2.27
2019-06-15T10:16:19.995Z,1.90
2019-06-15T10:18:48.806Z,2.07
2019-06-15T10:21:17.636Z,1.90
2019-06-15T10:23:46.478Z,1.77
2019-06-15T10:26:15.356Z,1.70
2019-06-15T10:28:44.159Z,2.30
2019-06-15T10:31:12.903Z,1.67
2019-06-15T10:33:41.686Z,2.20
2019-06-15T10:36:10.567Z,1.97
2019-06-15T10:38:39.342Z,1.90
2019-06-15T10:41:08.085Z,1.93
2019-06-15T10:43:36.840Z,1.80
2019-06-15T10:46:05.758Z,1.90
2019-06-15T10:48:34.607Z,2.00
2019-06-15T10:51:03.522Z,1.80
2019-06-15T10:53:32.346Z,1.87
2019-06-15T10:56:01.213Z,1.73
2019-06-15T10:58:29.979Z,2.00
2019-06-15T11:00:58.735Z,1.60
2019-06-15T11:03:27.691Z,2.10
2019-06-15T11:05:56.434Z,1.90
2019-06-15T11:08:25.215Z,1.50
2019-06-15T11:11:12.680Z,1.70
2019-06-15T11:13:41.518Z,1.80
2019-06-15T11:16:10.271Z,1.73
2019-06-15T11:18:39.029Z,1.53
2019-06-15T11:21:07.777Z,1.70
2019-06-15T11:23:36.519Z,1.83
2019-06-15T11:26:05.335Z,1.93
2019-06-15T11:28:34.100Z,2.00
2019-06-15T11:31:02.848Z,1.87
2019-06-15T11:33:31.596Z,1.87
2019-06-15T11:36:00.437Z,2.00
2019-06-15T11:38:29.266Z,1.90
2019-06-15T11:40:58.014Z,1.90
2019-06-15T11:43:26.858Z,1.83
2019-06-15T11:45:55.598Z,1.80
2019-06-15T11:48:24.424Z,1.57
2019-06-15T11:50:53.188Z,1.80
2019-06-15T11:53:21.933Z,1.80
2019-06-15T11:55:50.719Z,1.50
2019-06-15T11:58:19.486Z,1.80
2019-06-15T12:00:48.449Z,1.73
2019-06-15T12:03:17.183Z,1.80
2019-06-15T12:05:46.103Z,1.70
2019-06-15T12:08:14.886Z,1.63
2019-06-15T12:10:43.610Z,1.77
2019-06-15T12:13:12.369Z,1.77
2019-06-15T12:15:42.203Z,1.70
2019-06-15T12:18:10.959Z,1.70
2019-06-15T12:20:39.782Z,1.73
2019-06-15T12:23:08.626Z,1.57
2019-06-15T12:25:37.407Z,1.70
2019-06-15T12:28:06.159Z,1.80
2019-06-15T12:30:46.751Z,1.60
2019-06-15T12:33:07.964Z,1.57
2019-06-15T12:35:36.801Z,1.80
2019-06-15T12:38:05.678Z,2.00
2019-06-15T12:40:34.512Z,1.80
2019-06-15T12:43:03.348Z,1.67
2019-06-15T12:45:32.106Z,1.80
2019-06-15T12:48:00.876Z,1.60
2019-06-15T12:50:29.657Z,1.70
2019-06-15T12:52:58.579Z,1.57
2019-06-15T12:55:27.347Z,1.67
2019-06-15T12:57:56.117Z,1.90
2019-06-15T13:00:30.508Z,1.80
2019-06-15T13:02:59.277Z,1.63
2019-06-15T13:05:28.037Z,2.00
2019-06-15T13:07:56.879Z,2.00
2019-06-15T13:10:25.685Z,1.90
2019-06-15T13:12:54.447Z,2.00
2019-06-15T13:15:23.314Z,2.10
2019-06-15T13:17:52.242Z,1.83
2019-06-15T13:20:21.010Z,2.03
2019-06-15T13:22:49.784Z,2.10
2019-06-15T13:25:18.533Z,2.20
2019-06-15T13:27:47.275Z,1.90
2019-06-15T13:30:20.205Z,2.03
2019-06-15T13:32:49.097Z,2.20
2019-06-15T13:35:17.865Z,2.00
2019-06-15T13:37:46.684Z,1.73
2019-06-15T13:40:15.462Z,1.90
2019-06-15T13:42:44.200Z,2.00
2019-06-15T13:45:12.958Z,2.30
2019-06-15T13:47:41.722Z,2.20
2019-06-15T13:50:10.620Z,2.03
2019-06-15T13:52:39.393Z,1.93
2019-06-15T13:55:08.252Z,2.20
2019-06-15T13:57:37.006Z,2.20
2019-06-15T14:00:06.549Z,2.03
2019-06-15T14:02:35.383Z,2.20
2019-06-15T14:05:04.637Z,1.70
2019-06-15T14:07:33.388Z,1.90
2019-06-15T14:10:02.191Z,2.00
2019-06-15T14:12:31.009Z,2.10
2019-06-15T14:14:59.857Z,2.50
2019-06-15T14:17:28.793Z,1.90
2019-06-15T14:19:57.633Z,1.80
2019-06-15T14:22:26.473Z,1.90
2019-06-15T14:24:55.235Z,1.90
2019-06-15T14:27:24.093Z,2.10
2019-06-15T14:29:52.861Z,2.17
2019-06-15T14:32:21.696Z,2.00
2019-06-15T14:34:50.459Z,2.07
2019-06-15T14:37:19.263Z,2.00
2019-06-15T14:39:48.037Z,2.10
2019-06-15T14:42:16.805Z,2.10
2019-06-15T14:44:45.538Z,2.07
2019-06-15T14:47:14.290Z,2.03
2019-06-15T14:49:43.036Z,2.27
2019-06-15T14:52:11.789Z,2.03
2019-06-15T14:54:40.616Z,1.97
2019-06-15T14:57:09.379Z,2.10
2019-06-15T14:59:53.014Z,2.17
2019-06-15T15:02:13.874Z,2.10
2019-06-15T15:04:39.449Z,1.80
2019-06-15T15:07:08.215Z,1.90
2019-06-15T15:09:36.984Z,1.77
2019-06-15T15:12:05.736Z,2.10
2019-06-15T15:14:36.518Z,1.80
2019-06-15T15:17:06.528Z,1.70
2019-06-15T15:19:36.043Z,2.10
2019-06-15T15:22:04.996Z,1.93
2019-06-15T15:24:33.737Z,1.87
2019-06-15T15:27:02.591Z,2.20
2019-06-15T15:29:31.342Z,1.73
2019-06-15T15:32:00.101Z,1.67
2019-06-15T15:34:28.951Z,1.90
2019-06-15T15:36:57.740Z,1.80
2019-06-15T15:39:27.400Z,2.10
2019-06-15T15:41:56.410Z,1.87
2019-06-15T15:44:26.944Z,1.80
2019-06-15T15:46:57.032Z,1.90
2019-06-15T15:49:26.742Z,1.90
2019-06-15T15:51:56.586Z,1.90
2019-06-15T15:54:25.557Z,1.70
2019-06-15T15:56:55.943Z,1.73
2019-06-15T15:59:24.827Z,1.80
2019-06-15T16:01:53.658Z,1.90
2019-06-15T16:04:22.414Z,1.63
2019-06-15T16:06:51.182Z,2.00
2019-06-15T16:09:19.941Z,1.90
2019-06-15T16:11:48.789Z,1.90
2019-06-15T16:14:17.594Z,1.83
2019-06-15T16:16:46.804Z,1.73
2019-06-15T16:19:16.950Z,2.00
2019-06-15T16:21:47.084Z,1.93
2019-06-15T16:24:16.805Z,1.80
2019-06-15T16:26:46.716Z,1.80
2019-06-15T16:29:16.461Z,1.80
2019-06-15T16:31:46.005Z,1.77
2019-06-15T16:34:16.108Z,1.80
2019-06-15T16:36:46.966Z,2.00
2019-06-15T16:39:16.759Z,1.60
2019-06-15T16:41:46.961Z,1.80
2019-06-15T16:44:17.270Z,1.90
2019-06-15T16:46:46.320Z,1.83
2019-06-15T16:49:18.373Z,1.50
2019-06-15T16:51:46.600Z,1.90
2019-06-15T16:54:16.645Z,1.70
2019-06-15T16:56:46.606Z,1.70
2019-06-15T16:59:15.584Z,1.60
2019-06-15T17:01:44.342Z,1.73
2019-06-15T17:04:13.205Z,1.67
2019-06-15T17:06:42.022Z,1.70
2019-06-15T17:09:10.763Z,1.70
2019-06-15T17:11:39.513Z,1.63
2019-06-15T17:14:08.249Z,1.80
2019-06-15T17:16:37.049Z,1.40
2019-06-15T17:19:07.144Z,1.63
2019-06-15T17:21:37.271Z,1.50
2019-06-15T17:24:06.719Z,1.70
2019-06-15T17:26:36.529Z,1.90
2019-06-15T17:29:07.426Z,1.40
2019-06-15T17:31:37.513Z,1.80
2019-06-15T17:34:07.275Z,1.97
2019-06-15T17:36:36.950Z,1.73
2019-06-15T17:39:06.837Z,1.70
2019-06-15T17:41:36.590Z,1.60
2019-06-15T17:44:06.061Z,1.50
2019-06-15T17:46:35.098Z,2.00
2019-06-15T17:49:03.956Z,1.80
2019-06-15T17:51:33.488Z,2.13
2019-06-15T17:54:02.257Z,1.70
2019-06-15T17:56:31.037Z,1.60
2019-06-15T17:58:59.872Z,1.80
2019-06-15T18:01:28.807Z,1.70
2019-06-15T18:03:58.306Z,1.47
2019-06-15T18:06:27.298Z,1.80
2019-06-15T18:08:56.129Z,2.10
2019-06-15T18:11:26.205Z,1.80
2019-06-15T18:13:56.731Z,2.07
2019-06-15T18:16:28.059Z,2.00
2019-06-15T18:18:56.233Z,1.80
2019-06-15T18:21:26.855Z,1.80
2019-06-15T18:23:57.276Z,1.73
2019-06-15T18:26:26.751Z,1.63
2019-06-15T18:28:55.787Z,1.80
2019-06-15T18:31:26.824Z,1.73
2019-06-15T18:34:06.539Z,1.77
2019-06-15T18:36:26.595Z,1.70
2019-06-15T18:38:57.574Z,2.00
2019-06-15T18:41:26.554Z,1.83
2019-06-15T18:43:56.509Z,1.80
2019-06-15T18:46:27.340Z,1.60
2019-06-15T18:48:55.911Z,1.80
2019-06-15T18:51:26.895Z,1.67
2019-06-15T18:53:56.182Z,1.70
2019-06-15T18:56:27.136Z,1.90
2019-06-15T18:58:56.345Z,1.73
2019-06-15T19:01:27.074Z,1.60
2019-06-15T19:03:56.337Z,1.67
2019-06-15T19:06:26.378Z,1.90
2019-06-15T19:08:57.329Z,1.97
2019-06-15T19:11:27.331Z,1.80
2019-06-15T19:13:56.473Z,1.87
2019-06-15T19:16:25.228Z,1.40
2019-06-15T19:18:53.982Z,1.90
2019-06-15T19:21:25.943Z,1.73
2019-06-15T19:23:56.304Z,1.60
2019-06-15T19:26:26.760Z,1.80
2019-06-15T19:28:55.944Z,1.43
2019-06-15T19:31:27.618Z,1.70
2019-06-15T19:33:56.846Z,1.90
2019-06-15T19:36:25.831Z,1.73
2019-06-15T19:38:57.005Z,1.70
2019-06-15T19:41:26.654Z,1.70
2019-06-15T19:43:57.061Z,1.77
2019-06-15T19:46:26.145Z,1.53
2019-06-15T19:48:56.060Z,1.60
2019-06-15T19:51:26.468Z,1.50
2019-06-15T19:53:56.608Z,1.87
2019-06-15T19:56:26.112Z,1.70
2019-06-15T19:58:56.521Z,1.70
2019-06-15T20:01:26.251Z,1.80
2019-06-15T20:03:57.340Z,1.57
2019-06-15T20:06:26.110Z,1.60
2019-06-15T20:08:56.278Z,1.63
2019-06-15T20:11:25.240Z,1.70
2019-06-15T20:13:56.259Z,1.67
2019-06-15T20:16:24.767Z,1.50
2019-06-15T20:18:56.108Z,1.73
2019-06-15T20:21:24.072Z,1.40
2019-06-15T20:23:52.810Z,1.50
2019-06-15T20:26:21.655Z,1.70
2019-06-15T20:28:50.555Z,1.47
2019-06-15T20:31:19.391Z,1.80
2019-06-15T20:33:48.225Z,1.90
2019-06-15T20:36:17.050Z,1.60
2019-06-15T20:38:46.948Z,1.43
2019-06-15T20:41:16.358Z,1.57
2019-06-15T20:43:46.041Z,1.50
2019-06-15T20:46:17.055Z,1.60
2019-06-15T20:48:47.073Z,1.90
2019-06-15T20:51:17.420Z,1.40
2019-06-15T20:53:46.415Z,1.60
2019-06-15T20:56:17.076Z,1.67
2019-06-15T20:58:45.744Z,1.40
2019-06-15T21:01:16.465Z,1.40
2019-06-15T21:03:47.018Z,1.80
2019-06-15T21:06:16.913Z,1.50
2019-06-15T21:08:46.944Z,1.40
2019-06-15T21:11:19.681Z,1.70
2019-06-15T21:13:48.555Z,1.43
2019-06-15T21:16:17.550Z,1.40
2019-06-15T21:18:46.838Z,1.57
2019-06-15T21:21:16.040Z,1.40
2019-06-15T21:23:46.325Z,1.50
2019-06-15T21:26:16.406Z,1.50
2019-06-15T21:28:45.334Z,1.53
2019-06-15T21:31:16.587Z,1.50
2019-06-15T21:33:46.746Z,1.43
2019-06-15T21:36:15.319Z,1.60
2019-06-15T21:38:46.636Z,1.33
2019-06-15T21:41:16.655Z,1.40
2019-06-15T21:43:47.212Z,1.43
2019-06-15T21:46:16.839Z,1.43
2019-06-15T21:48:46.919Z,1.50
2019-06-15T21:51:16.572Z,1.40
2019-06-15T21:53:46.895Z,1.40
2019-06-15T21:56:16.165Z,1.53
2019-06-15T21:58:46.495Z,1.33
2019-06-15T22:01:38.604Z,1.50
2019-06-15T22:04:07.458Z,1.50
2019-06-15T22:06:37.228Z,1.80
2019-06-15T22:09:12.431Z,1.40
2019-06-15T22:11:42.655Z,1.50
2019-06-15T22:14:11.466Z,1.30
2019-06-15T22:16:40.237Z,1.53
2019-06-15T22:19:09.008Z,1.33
2019-06-15T22:21:38.197Z,1.73
2019-06-15T22:24:07.618Z,1.40
2019-06-15T22:26:36.345Z,1.40
2019-06-15T22:29:07.396Z,1.50
2019-06-15T22:31:36.450Z,1.40
2019-06-15T22:34:06.582Z,1.60
2019-06-15T22:36:36.403Z,1.50
2019-06-15T22:39:06.596Z,1.47
2019-06-15T22:41:36.087Z,1.50
2019-06-15T22:44:06.358Z,1.53
2019-06-15T22:46:35.325Z,1.60
2019-06-15T22:49:06.636Z,1.43
2019-06-15T22:51:36.815Z,1.20
2019-06-15T22:54:05.273Z,1.40
2019-06-15T22:56:34.054Z,1.50
2019-06-15T22:59:06.130Z,1.30
2019-06-15T23:01:34.463Z,1.57
2019-06-15T23:04:03.224Z,1.30
2019-06-15T23:06:37.667Z,1.30
2019-06-15T23:09:02.471Z,1.23
2019-06-15T23:11:31.255Z,1.20
2019-06-15T23:14:00.019Z,1.60
2019-06-15T23:16:28.951Z,1.40
2019-06-15T23:18:57.718Z,1.50
2019-06-15T23:21:26.911Z,1.40
2019-06-15T23:23:56.219Z,1.40
2019-06-15T23:26:25.239Z,1.47
2019-06-15T23:28:56.185Z,1.40
2019-06-15T23:31:24.699Z,1.50
2019-06-15T23:33:55.911Z,1.33
2019-06-15T23:36:29.375Z,1.43
2019-06-15T23:38:58.127Z,1.50
2019-06-15T23:41:27.428Z,1.30
2019-06-15T23:43:56.306Z,1.40
2019-06-15T23:46:27.168Z,1.47
2019-06-15T23:48:56.571Z,1.50
2019-06-15T23:51:26.433Z,1.40
2019-06-15T23:53:57.109Z,1.40
2019-06-15T23:56:26.218Z,1.40
2019-06-15T23:58:56.125Z,1.40
